Tiempo atmosférico en la estación meteorológica de Viso Del Marqués, Ciudad Real (778 m.)



Fecha
DESCASC
Temp. máxima en grados centígrados (hora)
DESCASC
Temp. mínima en grados centígrados (hora)
DESCASC
Temp. media en grados centígrados
DESCASC
Racha de viento máxima en m/sg (hora)
DESCASC
Velocidad máxima media en intervalos de 10 minutos(hora)
DESCASC
Precipitaciones diarias en mm
DESCASC
Precipitaciones de 00:00 a 06:00 en mm
DESCASC
Precipitaciones de 06:00 a 12:00 en mm
DESCASC
Precipitaciones de 12:00 a 18:00 en mm
DESCASC
Precipitaciones de 18:00 a 24:00 en mm
DESCASC
22-11-2020 16.1 (15:40) 1.7 (07:50) 8.9 4.17 (15:30) 2.22 (01:00) 0 0 0 0 0
21-11-2020 18.6 (15:30) 1.4 (08:00) 10 3.89 (17:20) 2.5 (17:20) 0 0 0 0 0
20-11-2020 17.3 (14:40) 4.1 (08:30) 10.7 6.67 (14:50) 4.44 (14:50) 0 0 0 0 0
19-11-2020 20.2 (15:10) 8 (00:00) 14.1 8.33 (15:40) 5.28 (15:40) 0 0 0 0 0
18-11-2020 22.4 (13:50) 7.9 (00:00) 15.1 3.33 (15:20) 1.94 (15:20) 0 0 0 0 0
17-11-2020 21.9 (15:10) 7.6 (00:00) 14.7 4.44 (13:40) 2.78 (11:20) 0 0 0 0 0
16-11-2020 19.5 (16:20) 11.1 (00:00) 15.3 6.39 (00:30) 4.72 (00:30) 0 0 0 0 0
15-11-2020 21.4 (13:40) 9.9 (00:00) 15.6 8.33 (15:40) 5.83 (15:40) 0 0 0 0 0
14-11-2020 15.1 (12:20) 11.2 (00:00) 13.2 7.5 (13:20) 5.56 (13:20) 0.3 0 0 0.3 0
13-11-2020 19.9 (14:50) 6.4 (00:00) 13.1 5 (11:30) 3.61 (11:30) 0 0 0 0 0
12-11-2020 18.1 (14:40) 6.3 (00:00) 12.2 4.17 (16:00) 2.22 (15:50) 0 0 0 0 0
11-11-2020 19.6 (16:10) 5.4 (00:00) 12.5 5.28 (17:50) 3.06 (17:40) 0 0 0 0 0
10-11-2020 16 (15:40) 7.6 (00:00) 11.8 5 (16:00) 3.06 (16:40) 0.1 0 0.1 0 0
09-11-2020 18.3 (13:40) 8.6 (00:00) 13.4 5.83 (12:10) 4.17 (12:10) 0.7 0 0 0 0.7
08-11-2020 18.3 (14:40) 5.3 (00:00) 11.8 9.17 (15:30) 6.67 (15:40) 0 0 0 0 0
07-11-2020 15.7 (15:30) 8.6 (00:00) 12.2 16.67 (01:10) 12.22 (01:10) 12.9 9.9 3 0 0
06-11-2020 22.6 (14:30) 12.6 (00:00) 17.6 11.11 (12:00) 8.06 (11:50) 2.4 0 0 0 2.4
05-11-2020 16 (16:20) 11.1 (00:00) 13.6 12.22 (02:20) 8.33 (02:20) 6.5 3.5 0.6 2.4 0
04-11-2020 15.4 (13:00) 11.1 (00:00) 13.3 9.44 (23:59) 6.67 (23:59) 4.8 4.1 0 0 0.7
03-11-2020 21.9 (14:40) 9.1 (00:00) 15.5 11.67 (19:10) 7.22 (19:00) 2 0 0 0 2
02-11-2020 25.3 (14:30) 8.6 (00:00) 16.9 4.17 (15:50) 2.22 (15:00) 0 0 0 0 0
01-11-2020 24.5 (15:00) 9.4 (00:00) 16.9 3.89 (13:30) 1.67 (00:50) 0 0 0 0 0
31-10-2020 25.6 (15:20) 8 (00:00) 16.8 5.56 (16:30) 2.22 (17:20) 0 0 0 0 0
30-10-2020 24.1 (15:20) 8 (00:00) 16.1 4.44 (15:30) 2.22 (16:40) 0 0 0 0 0
29-10-2020 21.5 (16:10) 7.8 (00:00) 14.7 3.33 (17:40) 1.94 (17:40) 0 0 0 0 0
28-10-2020 19.3 (15:20) 5.4 (00:00) 12.3 5 (16:10) 2.5 (14:40) 0 0 0 0 0
27-10-2020 16 (16:10) 3.6 (00:00) 9.8 7.5 (12:00) 3.61 (13:40) 0 0 0 0 0

Gráficas

Temp. máximas Temp. mínimas Temp. medias Precipitaciones Rachas de viento máximas Velocidades máximas media en intervalos de 10 minutos

Datos horarios

Fecha y hora oficial Temperatura (ºC) Velocidad del viento (km/h) Dirección del viento Racha (km/h) Dirección de racha Precipitación (mm) Presión (hPa) Tendencia (hPa) Humedad (%)
2020-11-25 23:00:00 8.5 8 Sudoeste 12 Sudoeste 0.1 920 -0.5 93
2020-11-25 22:00:00 9.3 0 Calma 10 Sudoeste 0.8 920.6 0.5 92
2020-11-25 21:00:00 8.9 5 Sudoeste 18 Sudoeste 0.8 920.3 0.2 91
2020-11-25 20:00:00 9.7 8 Sudoeste 17 Sudoeste 0.2 920.5 -0.3 82
2020-11-25 19:00:00 9.7 10 Sudoeste 24 Sudoeste 0 920.1 -0.1 82
2020-11-25 18:00:00 9.8 13 Sudoeste 21 Sudoeste 0 920.1 -0.8 81
2020-11-25 17:00:00 9.5 13 Sudoeste 50 Sudoeste 0.4 920.8 -1.1 88
2020-11-25 16:00:00 14.8 16 Sudoeste 35 Sudoeste 0 920.2 -2.8 51
2020-11-25 15:00:00 14.6 14 Sudoeste 28 Sudoeste 0 920.9 -3.1 55
2020-11-25 14:00:00 12.9 19 Sudoeste 31 Sudoeste 0 921.9 -2.4 62
2020-11-25 13:00:00 12.7 14 Sudoeste 33 Sudoeste 0 923 -1.4 62
2020-11-25 12:00:00 11.8 14 Sudoeste 27 Sudoeste 0 924 -0.3 67
2020-11-25 11:00:00 11.2 15 Sudoeste 28 Sudoeste 0 924.3 -- 73
2020-11-25 10:00:00 11 12 Sudoeste 24 Sudoeste 0 924.4 -- 76
2020-11-25 09:00:00 9.7 14 Sudoeste 23 Sudoeste 0 924.3 -- 84
2020-11-25 08:00:00 8.9 12 Sudoeste 18 Sudoeste 0 924.6 -- 87
2020-11-25 07:00:00 9 15 Sudoeste 22 Sudoeste 0 924.8 -- 87
2020-11-25 06:00:00 9.2 7 Sudoeste 16 Sudoeste 0 924.6 -- 86
2020-11-25 05:00:00 9.2 9 Sudoeste 28 Sudoeste 0 925 -- 81
2020-11-25 04:00:00 8.1 3 Sudoeste 11 Sudoeste 0 925.3 -- 77
2020-11-25 03:00:00 7.5 4 Sudoeste 10 Sudoeste 0 925.6 -- 77
2020-11-25 02:00:00 7.7 9 Sudoeste 15 Sudoeste 0 926 -- 77
2020-11-25 01:00:00 7.1 8 Sudoeste 14 Sudoeste 0 926.8 -- 77
2020-11-25 00:00:00 7.3 10 Sudoeste 13 Sudoeste 0 927 -- 77
2020-11-24 23:00:00 7.7 3 Sudoeste 6 Sudoeste 0 927.6 -- 77
2020-11-24 22:00:00 7.7 7 Sudoeste 10 Sudoeste 0 927.8 -- 76
2020-11-24 21:00:00 6.9 8 Sudoeste 15 Sudoeste 0 928.1 -- 73
2020-11-24 20:00:00 8.2 7 Sudoeste 19 Sudoeste 0 928 -- 67
2020-11-24 19:00:00 9.4 15 Sudoeste 19 Sudoeste 0 927.9 -- 64
2020-11-24 18:00:00 10.5 12 Sudoeste 17 Sudoeste 0 928.1 -- 52
2020-11-24 17:00:00 14.1 14 Sudoeste 23 Sudoeste 0 927.8 -- 43
2020-11-24 16:00:00 15.6 14 Sudoeste 21 Sudoeste 0 928.1 -- 39
2020-11-24 15:00:00 15.9 12 Sudoeste 22 Sudoeste 0 928.6 -- 38
2020-11-24 14:00:00 16.1 15 Sudoeste 23 Sudoeste 0 929.4 -- 37
2020-11-24 13:00:00 14.5 7 Sudoeste 14 Sudoeste 0 930.3 -- 41
2020-11-24 12:00:00 13.6 3 Sudoeste 9 Sudoeste 0 931.1 -- 43
2020-11-24 11:00:00 10.5 2 Sudoeste 5 Sudoeste 0 931.3 -- 61
2020-11-24 10:00:00 6 0 Calma 5 Sudoeste 0 931.2 -- 72
2020-11-24 09:00:00 2.5 0 Calma 9 Sudoeste 0 931.1 -- 77
2020-11-24 08:00:00 1.8 5 Sudoeste 8 Sudoeste 0 930.8 -- 77
2020-11-24 07:00:00 2.9 0 Calma 4 Sudoeste 0 930.7 -- 74
2020-11-24 06:00:00 3 0 Calma 7 Sudoeste 0 930.9 -- 73
2020-11-24 05:00:00 1.8 4 Sudoeste 6 Sudoeste 0 930.9 -- 75
2020-11-24 04:00:00 1.9 4 Sudoeste 6 Sudoeste 0 931.1 -- 75
2020-11-24 03:00:00 2.6 3 Sudoeste 8 Sudoeste 0 931.5 -- 72
2020-11-24 02:00:00 3.9 0 Calma 4 Sudoeste 0 931.7 -- 69
2020-11-24 01:00:00 4 0 Calma 6 Sudoeste 0 932.3 -- 68
2020-11-24 00:00:00 4.5 4 Sudoeste 6 Sudoeste 0 932.6 -- 68
2020-11-23 23:00:00 6 3 Sudoeste 5 Sudoeste 0 932.9 -- 62
2020-11-23 22:00:00 6.8 3 Sudoeste 6 Sudoeste 0 932.9 -- 58
2020-11-23 21:00:00 8.2 0 Calma 4 Sudoeste 0 933 -- 51
2020-11-23 20:00:00 8.1 3 Sudoeste 6 Sudoeste 0 933 -- 52
2020-11-23 19:00:00 11.6 2 Sudoeste 6 Sudoeste 0 932.8 -- 44
2020-11-23 18:00:00 14.4 2 Sudoeste 4 Sudoeste 0 932.2 -- 35
2020-11-23 17:00:00 16.5 2 Sudoeste 9 Sudoeste 0 932.1 -- 32
2020-11-23 16:00:00 17.1 2 Sudoeste 9 Sudoeste 0 932.3 -- 31
2020-11-23 15:00:00 16 3 Sudoeste 11 Sudoeste 0 932.6 -- 33
2020-11-23 14:00:00 16 5 Sudoeste 10 Sudoeste 0 932.9 -- 34
2020-11-23 13:00:00 13.5 4 Sudoeste 9 Sudoeste 0 933.5 -- 39
2020-11-23 12:00:00 12.3 3 Sudoeste 8 Sudoeste 0 934.4 -- 45
2020-11-23 11:00:00 9.3 0 Calma 4 Sudoeste 0 934.4 -- 53
2020-11-23 10:00:00 7.7 0 Calma 3 Sudoeste 0 934.2 -- 71
2020-11-23 09:00:00 3.2 0 Calma 4 Sudoeste 0 933.7 -- 77
2020-11-23 08:00:00 3.4 4 Sudoeste 5 Sudoeste 0 933.6 -- 73
2020-11-23 07:00:00 1.8 4 Sudoeste 5 Sudoeste 0 933.5 -- 77
2020-11-23 06:00:00 3.7 2 Sudoeste 5 Sudoeste 0 933.3 -- 75
2020-11-23 05:00:00 2.5 5 Sudoeste 6 Sudoeste 0 933.3 -- 77
2020-11-23 04:00:00 3.9 0 Calma 5 Sudoeste 0 933.5 -- 73
2020-11-23 03:00:00 3.6 3 Sudoeste 5 Sudoeste 0 933.6 -- 77
2020-11-23 02:00:00 3.4 3 Sudoeste 5 Sudoeste 0 933.7 -- 77
2020-11-23 01:00:00 5.1 0 Calma 2 Sudoeste 0 933.9 -- 74
2020-11-23 00:00:00 4.7 0 Calma 5 Sudoeste 0 934 -- 76
2020-11-22 23:00:00 4.4 3 Sudoeste 5 Sudoeste 0 934.1 -- 69
2020-11-22 22:00:00 6.5 3 Sudoeste 5 Sudoeste 0 934 -- 68
2020-11-22 21:00:00 7.4 0 Calma 2 Sudoeste 0 933.7 -- 60
2020-11-22 20:00:00 8.6 0 Calma 4 Sudoeste 0 933.6 -- 54
2020-11-22 19:00:00 10.4 4 Sudoeste 7 Sudoeste 0 933.5 -- 48
2020-11-22 18:00:00 12.8 5 Sudoeste 9 Sudoeste 0 933.3 -- 42
2020-11-22 17:00:00 14.4 4 Sudoeste 12 Sudoeste 0 933.2 -- 39
2020-11-22 16:00:00 16.1 5 Sudoeste 15 Sudoeste 0 933 -- 42
2020-11-22 15:00:00 15.9 5 Sudoeste 12 Sudoeste 0 933.1 -- 41
2020-11-22 14:00:00 15.7 0 Calma 13 Sudoeste 0 933.8 -- 43
2020-11-22 13:00:00 15 4 Sudoeste 14 Sudoeste 0 934.5 -- 49
2020-11-22 12:00:00 12.9 5 Sudoeste 11 Sudoeste 0 935.1 -- 55
2020-11-22 11:00:00 10.5 3 Sudoeste 5 Sudoeste 0 935.4 -- 67
2020-11-22 10:00:00 8.5 0 Calma 4 Sudoeste 0 934.9 -- 75
2020-11-22 09:00:00 3.7 4 Sudoeste 7 Sudoeste 0 934.7 -- 93
2020-11-22 08:00:00 2.3 4 Sudoeste 11 Sudoeste 0 934.4 -- 92
2020-11-22 07:00:00 3 7 Sudoeste 10 Sudoeste 0 933.9 -- 90
2020-11-22 06:00:00 3.4 5 Sudoeste 6 Sudoeste 0 933.7 -- 86
2020-11-22 05:00:00 4.2 3 Sudoeste 6 Sudoeste 0 933.6 -- 83
2020-11-22 04:00:00 4.6 0 Calma 6 Sudoeste 0 933.6 -- 81
2020-11-22 03:00:00 4.9 0 Calma 9 Sudoeste 0 933.6 -- 77
2020-11-22 02:00:00 5.8 6 Sudoeste 9 Sudoeste 0 933.7 -- 75
2020-11-22 01:00:00 6.3 8 Sudoeste 11 Sudoeste 0 934.1 -- 69
2020-11-22 00:00:00 8.2 6 Sudoeste 8 Sudoeste 0 934.1 -- 64
2020-11-21 23:00:00 8.2 6 Sudoeste 9 Sudoeste 0 934.1 -- 60
2020-11-21 22:00:00 9.6 2 Sudoeste 7 Sudoeste 0 933.9 -- 51
2020-11-21 21:00:00 10.2 3 Sudoeste 6 Sudoeste 0 933.9 -- 51
2020-11-21 20:00:00 10.4 0 Calma 5 Sudoeste 0 933.5 -- 56
2020-11-21 19:00:00 11.6 3 Sudoeste 10 Sudoeste 0 933.5 -- 48
2020-11-21 18:00:00 14 6 Sudoeste 14 Sudoeste 0 932.9 -- 42
2020-11-21 17:00:00 16.3 5 Sudoeste 10 Sudoeste 0 932.5 -- 39
2020-11-21 16:00:00 18 6 Sudoeste 12 Sudoeste 0 932.4 -- 41
2020-11-21 15:00:00 18.2 3 Sudoeste 11 Sudoeste 0 932.2 -- 39
2020-11-21 14:00:00 16 4 Sudoeste 8 Sudoeste 0 932.7 -- 42
2020-11-21 13:00:00 15.6 4 Sudoeste 8 Sudoeste 0 933.2 -- 43
2020-11-21 12:00:00 12.4 3 Sudoeste 9 Sudoeste 0 934 -- 46
2020-11-21 11:00:00 9.9 3 Sudoeste 7 Sudoeste 0 934 -- 52
2020-11-21 10:00:00 7.7 3 Sudoeste 9 Sudoeste 0 933.4 -- 60
2020-11-21 09:00:00 4.4 0 Calma 6 Sudoeste 0 933.1 -- 72
2020-11-21 08:00:00 1.4 5 Sudoeste 8 Sudoeste 0 932.6 -- 81
2020-11-21 07:00:00 3.8 2 Sudoeste 9 Sudoeste 0 932.3 -- 72
2020-11-21 06:00:00 4.7 3 Sudoeste 5 Sudoeste 0 932.3 -- 64
2020-11-21 05:00:00 3.9 5 Sudoeste 8 Sudoeste 0 932.5 -- 64
2020-11-21 04:00:00 5.3 3 Sudoeste 5 Sudoeste 0 932.7 -- 58
2020-11-21 03:00:00 6.9 4 Sudoeste 10 Sudoeste 0 932.9 -- 50
2020-11-21 02:00:00 7 3 Sudoeste 8 Sudoeste 0 932.8 -- 51
2020-11-21 01:00:00 6.1 4 Sudoeste 9 Sudoeste 0 933.2 -- 55
2020-11-21 00:00:00 8.6 5 Sudoeste 9 Sudoeste 0 933.4 -- 45
2020-11-20 23:00:00 8.5 4 Sudoeste 12 Sudoeste 0 933.6 -- 43
2020-11-20 22:00:00 9.8 4 Sudoeste 10 Sudoeste 0 933.4 -- 41
2020-11-20 21:00:00 10 5 Sudoeste 9 Sudoeste 0 933.3 -- 39
2020-11-20 20:00:00 9.2 6 Sudoeste 12 Sudoeste 0 933.4 -- 38
2020-11-20 19:00:00 13 5 Sudoeste 10 Sudoeste 0 933.1 -- 31
2020-11-20 18:00:00 14.4 4 Sudoeste 16 Sudoeste 0 933.4 -- 29
2020-11-20 17:00:00 15.7 10 Sudoeste 20 Sudoeste 0 933.1 -- 29
2020-11-20 16:00:00 15.9 11 Sudoeste 24 Sudoeste 0 933.6 -- 28
2020-11-20 15:00:00 16.5 14 Sudoeste 24 Sudoeste 0 933.5 -- 24
2020-11-20 14:00:00 15.9 11 Sudoeste 21 Sudoeste 0 934.4 -- 31
2020-11-20 13:00:00 14.3 6 Sudoeste 16 Sudoeste 0 935.6 -- 41
2020-11-20 12:00:00 12.7 6 Sudoeste 20 Sudoeste 0 936.3 -- 49
2020-11-20 11:00:00 11.4 6 Sudoeste 13 Sudoeste 0 936.2 -- 65
2020-11-20 10:00:00 8.5 5 Sudoeste 11 Sudoeste 0 936.1 -- 92
2020-11-20 09:00:00 6.6 5 Sudoeste 12 Sudoeste 0 935.8 -- 95
2020-11-20 08:00:00 6.6 9 Sudoeste 12 Sudoeste 0 935.6 -- 95
2020-11-20 07:00:00 6.9 5 Sudoeste 8 Sudoeste 0 935.5 -- 95
2020-11-20 06:00:00 8 4 Sudoeste 8 Sudoeste 0 935.6 -- 93
2020-11-20 05:00:00 7.9 6 Sudoeste 8 Sudoeste 0 936 -- 93
2020-11-20 04:00:00 8.5 6 Sudoeste 8 Sudoeste 0 936.3 -- 89
2020-11-20 03:00:00 8.3 4 Sudoeste 7 Sudoeste 0 936.3 -- 87
2020-11-20 02:00:00 11 5 Sudoeste 7 Sudoeste 0 936.5 -- 81
2020-11-20 01:00:00 10.2 5 Sudoeste 9 Sudoeste 0 936.9 -- 77
2020-11-20 00:00:00 10.9 0 Calma 9 Sudoeste 0 937.4 -- 71
2020-11-19 23:00:00 11.4 0 Calma 8 Sudoeste 0 937.6 -- 67
2020-11-19 22:00:00 12.8 0 Calma 7 Sudoeste 0 937.6 -- 60
2020-11-19 21:00:00 13.6 0 Calma 6 Sudoeste 0 937.5 -- 56
2020-11-19 20:00:00 14.9 5 Sudoeste 17 Sudoeste 0 937.3 -- 50
2020-11-19 19:00:00 15.8 14 Sudoeste 25 Sudoeste 0 936.9 -- 49
2020-11-19 18:00:00 17.1 16 Sudoeste 24 Sudoeste 0 936.3 -- 47
2020-11-19 17:00:00 19.1 11 Sudoeste 21 Sudoeste 0 936.1 -- 42
2020-11-19 16:00:00 19.5 15 Sudoeste 30 Sudoeste 0 936.5 -- 41
2020-11-19 15:00:00 19.9 17 Sudoeste 26 Sudoeste 0 936.5 -- 40
2020-11-19 14:00:00 19.3 14 Sudoeste 22 Sudoeste 0 936.9 -- 42
2020-11-19 13:00:00 18.1 15 Sudoeste 22 Sudoeste 0 937.3 -- 48
2020-11-19 12:00:00 16.3 7 Sudoeste 13 Sudoeste 0 937.5 -- 54
2020-11-19 11:00:00 13.9 6 Sudoeste 10 Sudoeste 0 937.7 -- 70
2020-11-19 10:00:00 11.9 5 Sudoeste 7 Sudoeste 0 937.5 -- 81
2020-11-19 09:00:00 10.1 3 Sudoeste 9 Sudoeste 0 936.4 -- 88
2020-11-19 08:00:00 10.2 5 Sudoeste 7 Sudoeste 0 936.1 -- 85
2020-11-19 07:00:00 9.5 6 Sudoeste 9 Sudoeste 0 935.5 -- 85
2020-11-19 06:00:00 9.6 4 Sudoeste 8 Sudoeste 0 935.4 -- 84
2020-11-19 05:00:00 8.4 4 Sudoeste 7 Sudoeste 0 934.6 -- 77
2020-11-19 04:00:00 10.2 6 Sudoeste 8 Sudoeste 0 935.4 -- 71
2020-11-19 03:00:00 10.2 3 Sudoeste 7 Sudoeste 0 935.1 -- 68
2020-11-19 02:00:00 11.5 0 Calma 4 Sudoeste 0 935.2 -- 64
2020-11-19 01:00:00 11.2 4 Sudoeste 8 Sudoeste 0 935.6 -- 70
2020-11-19 00:00:00 11.1 4 Sudoeste 6 Sudoeste 0 935.5 -- 69
2020-11-18 23:00:00 13.4 0 Calma 0 Calma 0 935.3 -- 64
2020-11-18 22:00:00 14 0 Calma 4 Sudoeste 0 935.3 -- 62
2020-11-18 21:00:00 14 3 Sudoeste 4 Sudoeste 0 934.9 -- 60
2020-11-18 20:00:00 14.1 0 Calma 5 Sudoeste 0 934.7 -- 55
2020-11-18 19:00:00 17 5 Sudoeste 8 Sudoeste 0 934.4 -- 45
2020-11-18 18:00:00 19.1 2 Sudoeste 10 Sudoeste 0 934 -- 40
2020-11-18 17:00:00 20.7 7 Sudoeste 11 Sudoeste 0 934.1 -- 38
2020-11-18 16:00:00 21.8 6 Sudoeste 12 Sudoeste 0 934.2 -- 36
2020-11-18 15:00:00 21.9 5 Sudoeste 10 Sudoeste 0 934.2 -- 32
2020-11-18 14:00:00 21.6 3 Sudoeste 10 Sudoeste 0 934.6 -- 37
2020-11-18 13:00:00 21.1 2 Sudoeste 8 Sudoeste 0 934.9 -- 38
2020-11-18 12:00:00 19.1 4 Sudoeste 6 Sudoeste 0 935.4 -- 39
2020-11-18 11:00:00 16 0 Calma 4 Sudoeste 0 935.6 -- 60
2020-11-18 10:00:00 12.5 0 Calma 3 Sudoeste 0 935.5 -- 75
2020-11-18 09:00:00 9.5 0 Calma 4 Sudoeste 0 935.2 -- 85
2020-11-18 08:00:00 8.8 0 Calma 4 Sudoeste 0 934.8 -- 88
2020-11-18 07:00:00 8.6 0 Calma 7 Sudoeste 0 934.7 -- 89
2020-11-18 06:00:00 8 6 Sudoeste 8 Sudoeste 0 934.7 -- 90
2020-11-18 05:00:00 8.8 2 Sudoeste 6 Sudoeste 0 934.2 -- 89
2020-11-18 04:00:00 8.7 0 Calma 5 Sudoeste 0 934.5 -- 89
2020-11-18 03:00:00 8.7 4 Sudoeste 8 Sudoeste 0 934.5 -- 90
2020-11-18 02:00:00 8.7 4 Sudoeste 8 Sudoeste 0 934.8 -- 89
2020-11-18 01:00:00 9.5 5 Sudoeste 6 Sudoeste 0 935.1 -- 86
2020-11-18 00:00:00 11.2 0 Calma 3 Sudoeste 0 935.1 -- 80
2020-11-17 23:00:00 11.1 0 Calma 6 Sudoeste 0 935.3 -- 83
2020-11-17 22:00:00 12.1 0 Calma 8 Sudoeste 0 935.3 -- 77
2020-11-17 21:00:00 13.5 0 Calma 6 Sudoeste 0 935 -- 69
2020-11-17 20:00:00 13.6 4 Sudoeste 6 Sudoeste 0 934.7 -- 71
2020-11-17 19:00:00 14.7 5 Sudoeste 12 Sudoeste 0 934.4 -- 56
2020-11-17 18:00:00 18.2 7 Sudoeste 12 Sudoeste 0 933.9 -- 45
2020-11-17 17:00:00 20.9 4 Sudoeste 8 Sudoeste 0 933.8 -- 40
2020-11-17 16:00:00 20.8 2 Sudoeste 12 Sudoeste 0 933.9 -- 39
2020-11-17 15:00:00 20.4 3 Sudoeste 8 Sudoeste 0 934 -- 43
2020-11-17 14:00:00 20.4 0 Calma 16 Sudoeste 0 934.3 -- 51
2020-11-17 13:00:00 19.1 5 Sudoeste 13 Sudoeste 0 934.7 -- 58
2020-11-17 12:00:00 18 5 Sudoeste 14 Sudoeste 0 935.1 -- 65
2020-11-17 11:00:00 15.6 3 Sudoeste 8 Sudoeste 0 935.2 -- 77
2020-11-17 10:00:00 11.2 4 Sudoeste 6 Sudoeste 0 934.9 -- 88
2020-11-17 09:00:00 8.6 2 Sudoeste 6 Sudoeste 0 934.2 -- 93
2020-11-17 08:00:00 7.9 4 Sudoeste 6 Sudoeste 0 933.7 -- 94
2020-11-17 07:00:00 8.4 4 Sudoeste 6 Sudoeste 0 933.4 -- 93
2020-11-17 06:00:00 9.1 0 Calma 6 Sudoeste 0 933.1 -- 93
2020-11-17 05:00:00 9.4 3 Sudoeste 5 Sudoeste 0 933.1 -- 93
2020-11-17 04:00:00 9.5 4 Sudoeste 8 Sudoeste 0 933.3 -- 94
2020-11-17 03:00:00 9.9 0 Calma 6 Sudoeste 0 933.1 -- 94
2020-11-17 02:00:00 10.2 4 Sudoeste 5 Sudoeste 0 933.3 -- 93
2020-11-17 01:00:00 11.1 3 Sudoeste 5 Sudoeste 0 933.7 -- 92
2020-11-17 00:00:00 12 0 Calma 4 Sudoeste 0 933.8 -- 89
2020-11-16 23:00:00 12.5 2 Sudoeste 7 Sudoeste 0 933.7 -- 89
2020-11-16 22:00:00 13.7 4 Sudoeste 6 Sudoeste 0 933.5 -- 82
2020-11-16 21:00:00 13.9 3 Sudoeste 4 Sudoeste 0 933.4 -- 83
2020-11-16 20:00:00 14.4 3 Sudoeste 6 Sudoeste 0 932.8 -- 81
2020-11-16 19:00:00 15.7 4 Sudoeste 6 Sudoeste 0 932.3 -- 72
2020-11-16 18:00:00 18.1 4 Sudoeste 9 Sudoeste 0 931.8 -- 63
2020-11-16 17:00:00 18.5 5 Sudoeste 14 Sudoeste 0 931.8 -- 58
2020-11-16 16:00:00 18.9 8 Sudoeste 18 Sudoeste 0 931.5 -- 56
2020-11-16 15:00:00 18.4 4 Sudoeste 13 Sudoeste 0 931.5 -- 64
2020-11-16 14:00:00 17.5 4 Sudoeste 12 Sudoeste 0 931.7 -- 72
2020-11-16 13:00:00 16.3 4 Sudoeste 12 Sudoeste 0 932.1 -- 76
2020-11-16 12:00:00 15.7 6 Sudoeste 12 Sudoeste 0 933.1 -- 77
2020-11-16 11:00:00 14.8 7 Sudoeste 13 Sudoeste 0 932.8 -- 85
2020-11-16 10:00:00 14.6 6 Sudoeste 11 Sudoeste 0 932.4 -- 86
2020-11-16 09:00:00 11.5 5 Sudoeste 6 Sudoeste 0 931.5 -- 92
2020-11-16 08:00:00 11.4 0 Calma 8 Sudoeste 0 931.2 -- 91
2020-11-16 07:00:00 11.8 5 Sudoeste 8 Sudoeste 0 930.6 -- 89
2020-11-16 06:00:00 12.3 4 Sudoeste 8 Sudoeste 0 930.3 -- 92
2020-11-16 05:00:00 13 4 Sudoeste 7 Sudoeste 0 930.3 -- 88
2020-11-16 04:00:00 13.8 5 Sudoeste 6 Sudoeste 0 930.7 -- 85
2020-11-16 03:00:00 14.7 0 Calma 17 Sudoeste 0 930.8 -- 81
2020-11-16 02:00:00 14.6 6 Sudoeste 18 Sudoeste 0 930.9 -- 77
2020-11-16 01:00:00 14.2 8 Sudoeste 23 Sudoeste 0 930.8 -- 77
2020-11-16 00:00:00 14.2 13 Sudoeste 19 Sudoeste 0 930.8 -- 77
2020-11-15 23:00:00 15.3 5 Sudoeste 19 Sudoeste 0 931.1 -- 70
2020-11-15 22:00:00 14.9 11 Sudoeste 19 Sudoeste 0 931.3 -- 69
2020-11-15 21:00:00 15.3 8 Sudoeste 17 Sudoeste 0 931.4 -- 69
2020-11-15 20:00:00 14.9 6 Sudoeste 13 Sudoeste 0 931.1 -- 75
2020-11-15 19:00:00 15.6 11 Sudoeste 18 Sudoeste 0 930.9 -- 71
2020-11-15 18:00:00 16.8 11 Sudoeste 19 Sudoeste 0 930.5 -- 67
2020-11-15 17:00:00 18.8 15 Sudoeste 27 Sudoeste 0 930.2 -- 60
2020-11-15 16:00:00 19.8 18 Sudoeste 30 Sudoeste 0 930.3 -- 57
2020-11-15 15:00:00 20.1 16 Sudoeste 29 Sudoeste 0 930.3 -- 55
2020-11-15 14:00:00 19 14 Sudoeste 21 Sudoeste 0 930.5 -- 56
2020-11-15 13:00:00 20 8 Sudoeste 17 Sudoeste 0 931 -- 54
2020-11-15 12:00:00 18.4 5 Sudoeste 10 Sudoeste 0 931.4 -- 60
2020-11-15 11:00:00 18.1 4 Sudoeste 7 Sudoeste 0 931.3 -- 63
2020-11-15 10:00:00 15 2 Sudoeste 8 Sudoeste 0 931.4 -- 77
2020-11-15 09:00:00 11.3 0 Calma 9 Sudoeste 0 930.8 -- 92
2020-11-15 08:00:00 10.3 0 Calma 6 Sudoeste 0 930.6 -- 93
2020-11-15 07:00:00 10.2 0 Calma 3 Sudoeste 0 930 -- 93
2020-11-15 06:00:00 10.9 2 Sudoeste 12 Sudoeste 0 929.7 -- 93
2020-11-15 05:00:00 10.6 8 Sudoeste 14 Sudoeste 0 929.6 -- 93
2020-11-15 04:00:00 10.4 4 Sudoeste 8 Sudoeste 0 930.1 -- 92
2020-11-15 03:00:00 10.2 0 Calma 8 Sudoeste 0 930.6 -- 92
2020-11-15 02:00:00 10.9 5 Sudoeste 9 Sudoeste 0 930.6 -- 90
2020-11-15 01:00:00 11.7 4 Sudoeste 9 Sudoeste 0 930.7 -- 91
2020-11-15 00:00:00 12.9 5 Sudoeste 9 Sudoeste 0 930.8 -- 88
2020-11-14 23:00:00 12.6 0 Calma 9 Sudoeste 0 930.7 -- 88
2020-11-14 22:00:00 12.4 5 Sudoeste 12 Sudoeste 0 930.6 -- 90
2020-11-14 21:00:00 13.1 4 Sudoeste 12 Sudoeste 0 930.3 -- 90
2020-11-14 20:00:00 13 3 Sudoeste 11 Sudoeste 0 929.9 -- 91
2020-11-14 19:00:00 13.1 7 Sudoeste 15 Sudoeste 0 929.4 -- 88
2020-11-14 18:00:00 13.5 7 Sudoeste 11 Sudoeste 0 928.8 -- 84
2020-11-14 17:00:00 13.8 9 Sudoeste 17 Sudoeste 0 928.7 -- 82
2020-11-14 16:00:00 13.7 5 Sudoeste 18 Sudoeste 0.3 928.5 -- 85
2020-11-14 15:00:00 14 8 Sudoeste 21 Sudoeste 0 928.6 -- 83
2020-11-14 14:00:00 14.3 16 Sudoeste 27 Sudoeste 0 928.7 -- 77
2020-11-14 13:00:00 14 16 Sudoeste 23 Sudoeste 0 929.2 -- 76
2020-11-14 12:00:00 14.7 19 Sudoeste 26 Sudoeste 0 929.4 -- 75
2020-11-14 11:00:00 13.4 3 Sudoeste 12 Sudoeste 0 929.4 -- 76
2020-11-14 10:00:00 13.3 10 Sudoeste 15 Sudoeste 0 929.2 -- 75
2020-11-14 09:00:00 12.6 13 Sudoeste 15 Sudoeste 0 928.9 -- 77
2020-11-14 08:00:00 12 10 Sudoeste 14 Sudoeste 0 928.4 -- 81
2020-11-14 07:00:00 12.2 9 Sudoeste 13 Sudoeste 0 928.3 -- 80
2020-11-14 06:00:00 12 10 Sudoeste 14 Sudoeste 0 928 -- 77
2020-11-14 05:00:00 12.4 9 Sudoeste 17 Sudoeste 0 927.9 -- 77
2020-11-14 04:00:00 12.1 4 Sudoeste 5 Sudoeste 0 928.4 -- 77
2020-11-14 03:00:00 11.6 4 Sudoeste 7 Sudoeste 0 928.3 -- 77
2020-11-14 02:00:00 11.6 4 Sudoeste 6 Sudoeste 0 928.7 -- 77
2020-11-14 01:00:00 11.5 4 Sudoeste 6 Sudoeste 0 929.1 -- 76
2020-11-14 00:00:00 11.3 5 Sudoeste 6 Sudoeste 0 929.3 -- 74
2020-11-13 23:00:00 12.1 3 Sudoeste 5 Sudoeste 0 929.2 -- 67
2020-11-13 22:00:00 12.6 3 Sudoeste 5 Sudoeste 0 929.1 -- 65
2020-11-13 21:00:00 13.1 0 Calma 6 Sudoeste 0 929.1 -- 66
2020-11-13 20:00:00 13.6 3 Sudoeste 8 Sudoeste 0 928.5 -- 63
2020-11-13 19:00:00 13 5 Sudoeste 9 Sudoeste 0 928.2 -- 64
2020-11-13 18:00:00 14.6 7 Sudoeste 12 Sudoeste 0 927.9 -- 55
2020-11-13 17:00:00 18.1 5 Sudoeste 14 Sudoeste 0 927.7 -- 46
2020-11-13 16:00:00 18.2 8 Sudoeste 15 Sudoeste 0 927.7 -- 44
2020-11-13 15:00:00 19 4 Sudoeste 14 Sudoeste 0 927.8 -- 41
2020-11-13 14:00:00 19.3 5 Sudoeste 17 Sudoeste 0 928.2 -- 45
2020-11-13 13:00:00 18.3 5 Sudoeste 15 Sudoeste 0 928.6 -- 47
2020-11-13 12:00:00 16.6 10 Sudoeste 18 Sudoeste 0 929.1 -- 52
2020-11-13 11:00:00 15.8 9 Sudoeste 13 Sudoeste 0 929.3 -- 60
2020-11-13 10:00:00 13.8 7 Sudoeste 13 Sudoeste 0 929.1 -- 72
2020-11-13 09:00:00 8.6 0 Calma 7 Sudoeste 0 928.6 -- 87
2020-11-13 08:00:00 6.6 3 Sudoeste 8 Sudoeste 0 928 -- 88
2020-11-13 07:00:00 7 3 Sudoeste 5 Sudoeste 0 927.8 -- 88
2020-11-13 06:00:00 7 3 Sudoeste 9 Sudoeste 0 927.6 -- 87
2020-11-13 05:00:00 6.8 4 Sudoeste 7 Sudoeste 0 927.4 -- 88
2020-11-13 04:00:00 7.2 3 Sudoeste 7 Sudoeste 0 927.6 -- 85
2020-11-13 03:00:00 7.7 3 Sudoeste 5 Sudoeste 0 927.7 -- 84
2020-11-13 02:00:00 8.6 0 Calma 3 Sudoeste 0 927.5 -- 84
2020-11-13 01:00:00 8.8 0 Calma 7 Sudoeste 0 928.1 -- 84
2020-11-13 00:00:00 9 6 Sudoeste 8 Sudoeste 0 927.9 -- 82
2020-11-12 23:00:00 9.7 2 Sudoeste 4 Sudoeste 0 927.8 -- 77
2020-11-12 22:00:00 10.3 0 Calma 4 Sudoeste 0 927.9 -- 75
2020-11-12 21:00:00 9.7 2 Sudoeste 6 Sudoeste 0 927.6 -- 77
2020-11-12 20:00:00 11.6 4 Sudoeste 6 Sudoeste 0 927.9 -- 72
2020-11-12 19:00:00 11.8 3 Sudoeste 6 Sudoeste 0 927.7 -- 67
2020-11-12 18:00:00 14.3 3 Sudoeste 9 Sudoeste 0 927.3 -- 48
2020-11-12 17:00:00 15.7 6 Sudoeste 12 Sudoeste 0 927.2 -- 46
2020-11-12 16:00:00 15.7 8 Sudoeste 15 Sudoeste 0 927.1 -- 43
2020-11-12 15:00:00 17.9 5 Sudoeste 11 Sudoeste 0 927.5 -- 42
2020-11-12 14:00:00 15.9 6 Sudoeste 12 Sudoeste 0 928.1 -- 41
2020-11-12 13:00:00 15.5 3 Sudoeste 10 Sudoeste 0 928.8 -- 51
2020-11-12 12:00:00 13.8 3 Sudoeste 7 Sudoeste 0 930 -- 62
2020-11-12 11:00:00 12.5 2 Sudoeste 6 Sudoeste 0 930.2 -- 76
2020-11-12 10:00:00 9.4 0 Calma 5 Sudoeste 0 930.2 -- 90
2020-11-12 09:00:00 7.5 0 Calma 5 Sudoeste 0 929.8 -- 93
2020-11-12 08:00:00 6.5 5 Sudoeste 7 Sudoeste 0 929.5 -- 92
2020-11-12 07:00:00 6.6 0 Calma 5 Sudoeste 0 929.2 -- 92
2020-11-12 06:00:00 7 3 Sudoeste 5 Sudoeste 0 929.5 -- 89
2020-11-12 05:00:00 7.8 0 Calma 5 Sudoeste 0 929.6 -- 91
2020-11-12 04:00:00 8.1 3 Sudoeste 5 Sudoeste 0 930 -- 91
2020-11-12 03:00:00 8.2 2 Sudoeste 5 Sudoeste 0 930.5 -- 87
2020-11-12 02:00:00 9.7 0 Calma 4 Sudoeste 0 930.6 -- 83
2020-11-12 01:00:00 9.5 2 Sudoeste 4 Sudoeste 0 931 -- 85
2020-11-12 00:00:00 10.7 2 Sudoeste 4 Sudoeste 0 931 -- 77
2020-11-11 23:00:00 10.5 3 Sudoeste 5 Sudoeste 0 931.3 -- 81
2020-11-11 22:00:00 9.8 0 Calma 7 Sudoeste 0 931.2 -- 85
2020-11-11 21:00:00 10.5 3 Sudoeste 7 Sudoeste 0 931.1 -- 78
2020-11-11 20:00:00 12.5 0 Calma 9 Sudoeste 0 930.9 -- 71
2020-11-11 19:00:00 13.6 4 Sudoeste 12 Sudoeste 0 931 -- 64
2020-11-11 18:00:00 14.7 8 Sudoeste 19 Sudoeste 0 930.4 -- 54
2020-11-11 17:00:00 17.7 7 Sudoeste 17 Sudoeste 0 930 -- 42
2020-11-11 16:00:00 19 5 Sudoeste 12 Sudoeste 0 930 -- 39
2020-11-11 15:00:00 18.4 6 Sudoeste 15 Sudoeste 0 930.1 -- 39
2020-11-11 14:00:00 18.1 5 Sudoeste 12 Sudoeste 0 930.7 -- 42
2020-11-11 13:00:00 17.7 4 Sudoeste 10 Sudoeste 0 931.3 -- 43
2020-11-11 12:00:00 16.7 4 Sudoeste 11 Sudoeste 0 932 -- 51
2020-11-11 11:00:00 13.8 0 Calma 5 Sudoeste 0 932.5 -- 68
2020-11-11 10:00:00 10.2 0 Calma 4 Sudoeste 0 932.7 -- 88
2020-11-11 09:00:00 7 0 Calma 3 Sudoeste 0 932.4 -- 93
2020-11-11 08:00:00 5.6 0 Calma 9 Sudoeste 0 932 -- 93
2020-11-11 07:00:00 6.3 6 Sudoeste 12 Sudoeste 0 931.9 -- 94
2020-11-11 06:00:00 6 8 Sudoeste 11 Sudoeste 0 932 -- 93
2020-11-11 05:00:00 6 6 Sudoeste 9 Sudoeste 0 932.2 -- 92
2020-11-11 04:00:00 7.2 0 Calma 4 Sudoeste 0 932.7 -- 91
2020-11-11 03:00:00 6.6 0 Calma 4 Sudoeste 0 933.2 -- 92
2020-11-11 02:00:00 7.4 0 Calma 6 Sudoeste 0 933.2 -- 88
2020-11-11 01:00:00 8.5 0 Calma 3 Sudoeste 0 933.4 -- 88
2020-11-11 00:00:00 8.5 0 Calma 6 Sudoeste 0 933.5 -- 88
2020-11-10 23:00:00 8.5 4 Sudoeste 8 Sudoeste 0 933.7 -- 84
2020-11-10 22:00:00 9.4 4 Sudoeste 6 Sudoeste 0 933.3 -- 82
2020-11-10 21:00:00 9.8 4 Sudoeste 6 Sudoeste 0 933.3 -- 77
2020-11-10 20:00:00 10.9 2 Sudoeste 11 Sudoeste 0 933.3 -- 72
2020-11-10 19:00:00 12.3 6 Sudoeste 12 Sudoeste 0 932.9 -- 65
2020-11-10 18:00:00 13.4 8 Sudoeste 16 Sudoeste 0 933 -- 61
2020-11-10 17:00:00 15.3 8 Sudoeste 17 Sudoeste 0 932.6 -- 56
2020-11-10 16:00:00 16 7 Sudoeste 18 Sudoeste 0 932.7 -- 54
2020-11-10 15:00:00 15.4 7 Sudoeste 15 Sudoeste 0 932.7 -- 53
2020-11-10 14:00:00 14.1 7 Sudoeste 14 Sudoeste 0 933.2 -- 65
2020-11-10 13:00:00 11.8 5 Sudoeste 15 Sudoeste 0 933.9 -- 81
2020-11-10 12:00:00 10.8 4 Sudoeste 10 Sudoeste 0 934.1 -- 93
2020-11-10 11:00:00 9.8 4 Sudoeste 9 Sudoeste 0 934.3 -- 95
2020-11-10 10:00:00 9.4 3 Sudoeste 10 Sudoeste 0 933.9 -- 95
2020-11-10 09:00:00 8.5 0 Calma 4 Sudoeste 0 933.5 -- 95
2020-11-10 08:00:00 7.9 3 Sudoeste 5 Sudoeste 0.1 932.9 -- 95
2020-11-10 07:00:00 8.4 2 Sudoeste 6 Sudoeste 0 932.3 -- 95
2020-11-10 06:00:00 8.4 4 Sudoeste 6 Sudoeste 0 932.2 -- 94
2020-11-10 05:00:00 7.7 3 Sudoeste 6 Sudoeste 0 932 -- 93
2020-11-10 04:00:00 8.2 3 Sudoeste 6 Sudoeste 0 932 -- 93
2020-11-10 03:00:00 9.4 5 Sudoeste 7 Sudoeste 0 932.2 -- 92
2020-11-10 02:00:00 10 3 Sudoeste 8 Sudoeste 0 932.2 -- 91
2020-11-10 01:00:00 10.6 4 Sudoeste 9 Sudoeste 0 932.2 -- 89
2020-11-10 00:00:00 11.9 4 Sudoeste 6 Sudoeste 0 932.3 -- 90
2020-11-09 23:00:00 12.7 4 Sudoeste 7 Sudoeste 0 932.4 -- 85
2020-11-09 22:00:00 12.8 0 Calma 5 Sudoeste 0 932.1 -- 87
2020-11-09 21:00:00 13.1 2 Sudoeste 7 Sudoeste 0.3 931.8 -- 85
2020-11-09 20:00:00 13.6 2 Sudoeste 6 Sudoeste 0.4 931.8 -- 76
2020-11-09 19:00:00 14 3 Sudoeste 8 Sudoeste 0 931.1 -- 74
2020-11-09 18:00:00 14.5 4 Sudoeste 10 Sudoeste 0 930.6 -- 71
2020-11-09 17:00:00 14.8 6 Sudoeste 17 Sudoeste 0 930.3 -- 67
2020-11-09 16:00:00 16.2 7 Sudoeste 16 Sudoeste 0 929.9 -- 60
2020-11-09 15:00:00 17.3 12 Sudoeste 20 Sudoeste 0 929.9 -- 56
2020-11-09 14:00:00 17 10 Sudoeste 18 Sudoeste 0 930.1 -- 54
2020-11-09 13:00:00 17.1 7 Sudoeste 21 Sudoeste 0 930.5 -- 52
2020-11-09 12:00:00 15.3 8 Sudoeste 19 Sudoeste 0 931.2 -- 56
2020-11-09 11:00:00 14.4 8 Sudoeste 15 Sudoeste 0 931.3 -- 69
2020-11-09 10:00:00 12 0 Calma 19 Sudoeste 0 931.1 -- 89
2020-11-09 09:00:00 10 5 Sudoeste 8 Sudoeste 0 930.7 -- 91
2020-11-09 08:00:00 10 4 Sudoeste 12 Sudoeste 0 929.9 -- 90
2020-11-09 07:00:00 9 4 Sudoeste 19 Sudoeste 0 929.6 -- 89
2020-11-09 06:00:00 9.6 9 Sudoeste 15 Sudoeste 0 929 -- 88
2020-11-09 05:00:00 9.5 0 Calma 10 Sudoeste 0 929.1 -- 86
2020-11-09 04:00:00 10 2 Sudoeste 10 Sudoeste 0 929 -- 85
2020-11-09 03:00:00 8.7 3 Sudoeste 7 Sudoeste 0 929.4 -- 88
2020-11-09 02:00:00 9.6 8 Sudoeste 10 Oeste 0 929.3 -- 84
2020-11-09 01:00:00 10.3 2 Sudoeste 13 Sudoeste 0 929.6 -- 81
2020-11-09 00:00:00 10.7 8 Sudoeste 14 Sudoeste 0 929.7 -- 77
2020-11-08 23:00:00 10.2 3 Sudoeste 10 Sudoeste 0 929.9 -- 81
2020-11-08 22:00:00 11.8 5 Sudoeste 8 Sudoeste 0 930.1 -- 73
2020-11-08 21:00:00 11.8 4 Sudoeste 5 Sudoeste 0 929.9 -- 73
2020-11-08 20:00:00 12.5 3 Sudoeste 5 Sudoeste 0 929.9 -- 68
2020-11-08 19:00:00 13.4 0 Calma 5 Sudoeste 0 929.7 -- 61
2020-11-08 18:00:00 13.8 4 Sudoeste 20 Sudoeste 0 929.5 -- 58
2020-11-08 17:00:00 16 12 Sudoeste 21 Sudoeste 0 929.4 -- 51
2020-11-08 16:00:00 17.8 17 Sudoeste 33 Sudoeste 0 929.5 -- 48
2020-11-08 15:00:00 17.9 22 Sudoeste 30 Sudoeste 0 929.5 -- 46
2020-11-08 14:00:00 17.9 18 Sudoeste 27 Sudoeste 0 929.8 -- 46
2020-11-08 13:00:00 18.1 15 Sudoeste 24 Sudoeste 0 930.3 -- 47
2020-11-08 12:00:00 16.6 15 Sudoeste 22 Sudoeste 0 931 -- 53
2020-11-08 11:00:00 14.5 9 Sudoeste 17 Sudoeste 0 931.3 -- 68
2020-11-08 10:00:00 12.8 13 Sudoeste 17 Sudoeste 0 931.4 -- 77
2020-11-08 09:00:00 9.3 6 Sudoeste 12 Sudoeste 0 931 -- 93
2020-11-08 08:00:00 6.4 6 Sudoeste 10 Sudoeste 0 930.7 -- 95
2020-11-08 07:00:00 6.1 4 Sudoeste 5 Sudoeste 0 930.7 -- 93
2020-11-08 06:00:00 7.1 3 Sudoeste 6 Sudoeste 0 930.7 -- 94
2020-11-08 05:00:00 6.7 5 Sudoeste 9 Sudoeste 0 930.5 -- 93
2020-11-08 04:00:00 7 4 Sudoeste 9 Sudoeste 0 930.8 -- 93
2020-11-08 03:00:00 7.8 4 Sudoeste 12 Oeste 0 931.1 -- 93
2020-11-08 02:00:00 8 5 Sudoeste 9 Sudoeste 0 931.3 -- 91
2020-11-08 01:00:00 8.5 4 Sudoeste 7 Sudoeste 0 931.6 -- 88
2020-11-08 00:00:00 8.6 3 Sudoeste 5 Sudoeste 0 931.7 -- 85
2020-11-07 23:00:00 9.7 0 Calma 10 Sudoeste 0 931.8 -- 80
2020-11-07 22:00:00 10.1 2 Sudoeste 9 Sudoeste 0 931.4 -- 75
2020-11-07 21:00:00 10.4 5 Sudoeste 15 Sudoeste 0 931.3 -- 77
2020-11-07 20:00:00 10.7 6 Sudoeste 14 Sudoeste 0 931.2 -- 77
2020-11-07 19:00:00 11 11 Sudoeste 24 Sudoeste 0 931 -- 73
2020-11-07 18:00:00 12.8 14 Sudoeste 22 Sudoeste 0 930.4 -- 65
2020-11-07 17:00:00 14.5 15 Sudoeste 30 Sudoeste 0 929.9 -- 59
2020-11-07 16:00:00 15 23 Sudoeste 33 Sudoeste 0 929.6 -- 58
2020-11-07 15:00:00 14.7 29 Sudoeste 40 Sudoeste 0 929.1 -- 63
2020-11-07 14:00:00 14 24 Sudoeste 38 Sudoeste 0 928.9 -- 75
2020-11-07 13:00:00 12.8 24 Sudoeste 41 Sudoeste 0 928.6 -- 77
2020-11-07 12:00:00 12.7 18 Sudoeste 36 Sudoeste 0 928.6 -- 85
2020-11-07 11:00:00 11.8 20 Sudoeste 35 Sudoeste 0.1 927.9 -- 87
2020-11-07 10:00:00 11.6 18 Sudoeste 34 Sudoeste 0.1 926.9 -- 91
2020-11-07 09:00:00 10.9 14 Sudoeste 27 Sudoeste 0.3 925.4 -- 87
2020-11-07 08:00:00 9.4 8 Sudoeste 22 Sudoeste 2.5 924.6 -- 92
2020-11-07 07:00:00 9.7 5 Sudoeste 9 Sudoeste 0 923.6 -- 85
2020-11-07 06:00:00 10 4 Sudoeste 35 Sudoeste 0 923.4 -- 81
2020-11-07 05:00:00 10 26 Sudoeste 54 Sudoeste 1.7 924.1 -- 85
2020-11-07 04:00:00 11.2 18 Sudoeste 27 Sudoeste 0 923.1 -- 91
2020-11-07 03:00:00 11.5 21 Sudoeste 39 Sudoeste 0.3 923.7 -- 90
2020-11-07 02:00:00 11.2 26 Sudoeste 60 Sudoeste 4.7 923.5 -- 91
2020-11-07 01:00:00 12.2 20 Sudoeste 42 Sudoeste 3.2 924.7 -- 85
2020-11-07 00:00:00 12.9 20 Sudoeste 33 Sudoeste 2.2 925.2 -- 85
2020-11-06 23:00:00 14.1 9 Sudoeste 37 Sudoeste 0.2 925.2 -- 72
2020-11-06 22:00:00 15.3 3 Sudoeste 12 Sudoeste 0 923.8 -- 60
2020-11-06 21:00:00 16.9 2 Sudoeste 9 Sudoeste 0 923.2 -- 53
2020-11-06 20:00:00 18.3 15 Sudoeste 27 Sudoeste 0 923.4 -- 49
2020-11-06 19:00:00 17.4 18 Sudoeste 23 Sudoeste 0 922.2 -- 49
2020-11-06 18:00:00 18.2 18 Sudoeste 27 Sudoeste 0 921.7 -- 46
2020-11-06 17:00:00 18.8 18 Sudoeste 33 Sudoeste 0 921.2 -- 46
2020-11-06 16:00:00 19.9 24 Sudoeste 33 Sudoeste 0 921.6 -- 42
2020-11-06 15:00:00 21.2 22 Sudoeste 35 Sudoeste 0 921.8 -- 39
2020-11-06 14:00:00 21.3 22 Sudoeste 33 Sudoeste 0 922 -- 39
2020-11-06 13:00:00 21.1 25 Sudoeste 38 Sudoeste 0 922.8 -- 39
2020-11-06 12:00:00 21.2 28 Sudoeste 40 Sudoeste 0 923.5 -- 39
2020-11-06 11:00:00 18.4 25 Sudoeste 33 Sudoeste 0 923.7 0.5 49
2020-11-06 10:00:00 16.5 23 Sudoeste 34 Sudoeste 0 923.8 -- 53
2020-11-06 09:00:00 14.7 24 Sudoeste 30 Sudoeste 0 923.6 -- 58
2020-11-06 08:00:00 13 23 Sudoeste 28 Sudoeste 0 923.2 -- 62
2020-11-06 07:00:00 13 18 Sudoeste 23 Sudoeste 0 923.6 -- 60
2020-11-06 06:00:00 13.5 14 Sudoeste 24 Sudoeste 0 924.1 -- 60
2020-11-06 05:00:00 12.9 7 Sudoeste 19 Sudoeste 0 924.1 -- 65
2020-11-06 04:00:00 12.9 10 Sudoeste 15 Sudoeste 0 924.7 -- 66
2020-11-06 03:00:00 13.1 7 Sudoeste 18 Sudoeste 0 925.3 -- 62
2020-11-06 02:00:00 13.9 18 Sudoeste 26 Sudoeste 0 925.5 -- 60
2020-11-06 01:00:00 12.7 17 Sudoeste 23 Sudoeste 0 925.3 -- 66
2020-11-06 00:00:00 13.1 15 Sudoeste 25 Sudoeste 0 925.2 -- 66
2020-11-05 23:00:00 11.9 6 Sudoeste 21 Sudoeste 0 925.3 -- 75
2020-11-05 22:00:00 12.9 15 Sudoeste 21 Sudoeste 0 925.5 -- 70
2020-11-05 21:00:00 11.8 6 Sudoeste 18 Sudoeste 0 925.1 -- 81
2020-11-05 20:00:00 13.1 11 Sudoeste 24 Sudoeste 0 925 -- 73
2020-11-05 19:00:00 12.9 19 Sudoeste 27 Sudoeste 0 924.3 -- 75
2020-11-05 18:00:00 14.1 22 Sudoeste 34 Sudoeste 0 923.5 -- 70
2020-11-05 17:00:00 15.7 25 Sudoeste 35 Sudoeste 0 923.5 -- 67
2020-11-05 16:00:00 15.4 20 Sudoeste 31 Oeste 0 923.3 -- 74
2020-11-05 15:00:00 14.8 21 Sudoeste 30 Sudoeste 0 923.4 -- 77
2020-11-05 14:00:00 13.9 17 Sudoeste 29 Sudoeste 0.6 923.7 -- 82
2020-11-05 13:00:00 13 13 Sudoeste 23 Sudoeste 1.8 924.6 -- 87
2020-11-05 12:00:00 14.1 11 Sudoeste 19 Sudoeste 0.3 925.1 -- 78
2020-11-05 11:00:00 13.8 5 Sudoeste 23 Sudoeste 0.1 925.1 -- 81
2020-11-05 10:00:00 13 16 Sudoeste 27 Sudoeste 0 924.9 -- 77
2020-11-05 09:00:00 12.6 18 Sudoeste 35 Sudoeste 0.1 924 -- 82
2020-11-05 08:00:00 12 22 Sudoeste 38 Sudoeste 0 923.3 -- 86
2020-11-05 07:00:00 11.8 18 Sudoeste 30 Sudoeste 0.1 923.1 -- 88
2020-11-05 06:00:00 11.4 4 Sudoeste 17 Sudoeste 0.9 923.4 -- 91
2020-11-05 05:00:00 11.5 11 Sudoeste 19 Sudoeste 2.4 923.5 -- 90
2020-11-05 04:00:00 12.3 11 Sudoeste 35 Sudoeste 0.2 923.1 -- 77
2020-11-05 03:00:00 12.5 25 Sudoeste 44 Sudoeste 0 923.2 -- 73
2020-11-05 02:00:00 11.6 23 Sudoeste 37 Sudoeste 0 922.4 -- 76
2020-11-05 01:00:00 11.4 18 Sudoeste 34 Sudoeste 0 923.2 -- 77
2020-11-05 00:00:00 11.3 24 Sudoeste 34 Sudoeste 0.1 923.5 -- 78
2020-11-04 23:00:00 11.2 20 Sudoeste 31 Sudoeste 0 923.5 -- 81
2020-11-04 22:00:00 11.8 15 Sudoeste 24 Sudoeste 0 923.3 -- 81
2020-11-04 21:00:00 12.1 12 Sudoeste 21 Sudoeste 0.6 922.9 -- 81
2020-11-04 20:00:00 11.9 6 Sudoeste 10 Sudoeste 0 922.9 -- 77
2020-11-04 19:00:00 12.3 4 Sudoeste 9 Sudoeste 0 922.9 -- 77
2020-11-04 18:00:00 12.7 5 Sudoeste 18 Sudoeste 0 922.6 -- 71
2020-11-04 17:00:00 13.5 15 Sudoeste 25 Sudoeste 0 922.8 -- 66
2020-11-04 16:00:00 14.2 15 Sudoeste 26 Sudoeste 0 922.9 -- 65
2020-11-04 15:00:00 14 14 Sudoeste 25 Sudoeste 0 923.2 -- 63
2020-11-04 14:00:00 14.4 17 Sudoeste 25 Sudoeste 0 924 -- 65
2020-11-04 13:00:00 14.4 12 Sudoeste 19 Sudoeste 0 924.7 -- 68
2020-11-04 12:00:00 12.2 9 Sudoeste 30 Sur 0 925.6 -- 82
2020-11-04 11:00:00 12.1 14 Sur 31 Sudoeste 0 926.1 0.1 84
2020-11-04 10:00:00 12.1 14 Sur 27 Sur 0 926.6 -- 87
2020-11-04 09:00:00 11.8 4 Sur 17 Sudeste 0 926.3 -- 87
2020-11-04 08:00:00 11.9 8 Sur 17 Sudoeste 0 926 -- 86
2020-11-04 07:00:00 11.7 6 Sur 17 Sudoeste 0 926 -- 88
2020-11-04 06:00:00 11.9 3 Sur 14 Sudoeste 0.2 926.9 -- 91
2020-11-04 05:00:00 12.1 6 Sur 16 Sudoeste 0.4 927.4 -- 93
2020-11-04 04:00:00 12 0 Calma 14 Noroeste 0.2 928 -- 93
2020-11-04 03:00:00 12 2 Norte 12 Norte 0.2 928.8 -- 92
2020-11-04 02:00:00 11.9 4 Noroeste 25 Sudoeste 3 929.3 -- 92
2020-11-04 01:00:00 12.3 6 Sudoeste 13 Sudoeste 0.1 930.3 -- 87
2020-11-04 00:00:00 12.7 5 Sudoeste 23 Sudoeste 1.9 930.7 -- 81
2020-11-03 23:00:00 14 10 Sudoeste 17 Sudoeste 0.1 931.2 -- 66
2020-11-03 22:00:00 14.4 8 Sudoeste 17 Sudoeste 0 931.4 -- 61
2020-11-03 21:00:00 14.6 6 Sudoeste 24 Sudoeste 0 931.4 -- 61
2020-11-03 20:00:00 15.4 19 Sudoeste 42 Sudoeste 0 931.1 -- 60
2020-11-03 19:00:00 16.4 26 Sudoeste 40 Sudoeste 0 930.9 -- 58
2020-11-03 18:00:00 18.7 17 Sudoeste 26 Sudoeste 0 930.5 -- 56
2020-11-03 17:00:00 20 14 Sudoeste 23 Sudoeste 0 930 -- 47
2020-11-03 16:00:00 21.1 7 Sudoeste 19 Sudoeste 0 930.1 -- 43
2020-11-03 15:00:00 21.4 8 Sudoeste 17 Sudoeste 0 930.4 -- 41
2020-11-03 14:00:00 21.1 4 Sudoeste 13 Sudoeste 0 930.7 -- 43
2020-11-03 13:00:00 20.5 5 Sudoeste 12 Sudoeste 0 931.5 -- 47
2020-11-03 12:00:00 19.8 3 Sudoeste 9 Sudoeste 0 931.7 -- 53
2020-11-03 11:00:00 18.2 3 Sudoeste 9 Sudoeste 0 931.9 -- 58
2020-11-03 10:00:00 15.9 0 Calma -- -- 0 931.8 -- 65
2020-11-03 09:00:00 12.1 0 Calma 4 Sudoeste 0 931.7 -- 84
2020-11-03 08:00:00 9.9 3 Sudoeste 9 Sudoeste 0 931 -- 86
2020-11-03 07:00:00 10.2 5 Sudoeste 6 Sudoeste 0 931 -- 85
2020-11-03 06:00:00 9.8 4 Sudoeste 7 Sudoeste 0 930.9 -- 85
2020-11-03 05:00:00 9.6 4 Sudoeste 8 Sudoeste 0 930.9 -- 77
2020-11-03 04:00:00 11.9 5 Sudoeste 7 Sudoeste 0 930.8 -- 72
2020-11-03 03:00:00 10.7 3 Sudoeste 7 Sudoeste 0 931.1 -- 67
2020-11-03 02:00:00 13.2 2 Sudoeste 5 Sudoeste 0 930.9 -- 62
2020-11-03 01:00:00 13.2 3 Sudoeste 8 Sudoeste 0 931.3 -- 60
2020-11-03 00:00:00 12.7 5 Sudoeste 9 Sudoeste 0 931.5 -- 63
2020-11-02 23:00:00 15.3 5 Sudoeste 8 Sudoeste 0 931.5 -- 55
2020-11-02 22:00:00 14.5 3 Sudoeste 9 Sudoeste 0 931.4 -- 59
2020-11-02 21:00:00 15.2 5 Sudoeste 8 Sudoeste 0 931.2 -- 51
2020-11-02 20:00:00 18.1 2 Sudoeste 6 Sudoeste 0 931 -- 45
2020-11-02 19:00:00 18.5 4 Sudoeste 8 Sudoeste 0 930.5 -- 42
2020-11-02 18:00:00 22.3 6 Sudoeste 10 Sudoeste 0 930.1 -- 35
2020-11-02 17:00:00 24.4 6 Sudoeste 14 Sudoeste 0 930.1 -- 32
2020-11-02 16:00:00 24.3 6 Sudoeste 15 Sudoeste 0 930 -- 34
2020-11-02 15:00:00 24.6 8 Sudoeste 14 Sudoeste 0 930.5 -- 35
2020-11-02 14:00:00 23.6 4 Sudoeste 14 Sudoeste 0 931.1 -- 36
2020-11-02 13:00:00 23.3 5 Sudoeste 10 Sudoeste 0 931.7 -- 37
2020-11-02 12:00:00 21.9 4 Sudoeste 8 Sudoeste 0 932 -- 40
2020-11-02 11:00:00 19.5 3 Sudoeste 6 Sudoeste 0 932.1 -- 52
2020-11-02 10:00:00 15.6 2 Sudoeste 4 Sudoeste 0 932.1 -- 66
2020-11-02 09:00:00 10.9 0 Calma 7 Sudoeste 0 931.8 -- 82
2020-11-02 08:00:00 8.9 5 Sudoeste 7 Sudoeste 0 931.3 -- 83
2020-11-02 07:00:00 9 0 Calma 6 Sudoeste 0 930.9 -- 81
2020-11-02 06:00:00 9 3 Sudoeste 5 Sudoeste 0 931.1 -- 77
2020-11-02 05:00:00 11.1 3 Sudoeste 4 Sudoeste 0 931 -- 72
2020-11-02 04:00:00 11.3 0 Calma 3 Sudoeste 0 931.3 -- 72
2020-11-02 03:00:00 11.3 2 Sudoeste 4 Sudoeste 0 931.6 -- 73
2020-11-02 02:00:00 11.7 5 Sudoeste 6 Sudoeste 0 931.8 -- 72
2020-11-02 01:00:00 11.9 4 Sudoeste 8 Sudoeste 0 931.9 -- 68
2020-11-02 00:00:00 13.2 2 Sudoeste 4 Sudoeste 0 932 -- 62
2020-11-01 23:00:00 14.2 0 Calma 4 Sudoeste 0 932.4 -- 59
2020-11-01 22:00:00 15.5 0 Calma 5 Sudoeste 0 932.5 -- 54
2020-11-01 21:00:00 16 4 Sudoeste 5 Sudoeste 0 932.1 -- 53
2020-11-01 20:00:00 16.4 2 Sudoeste 6 Sudoeste 0 932.1 -- 53
2020-11-01 19:00:00 18.9 4 Sudoeste 8 Sudoeste 0 931.8 -- 42
2020-11-01 18:00:00 21.6 3 Sudoeste 7 Sudoeste 0 931.8 -- 37
2020-11-01 17:00:00 22.9 4 Sudoeste 12 Sudoeste 0 931.6 -- 35
2020-11-01 16:00:00 23.5 4 Sudoeste 12 Sudoeste 0 932.1 -- 35
2020-11-01 15:00:00 23.5 4 Sudoeste 13 Sudoeste 0 932.4 -- 34
2020-11-01 14:00:00 23.4 4 Sudoeste 14 Sudoeste 0 932.9 -- 36
2020-11-01 13:00:00 22.4 5 Sudoeste 11 Sudoeste 0 933.7 -- 38
2020-11-01 12:00:00 20.5 4 Sudoeste 8 Sudoeste 0 934 -- 41
2020-11-01 11:00:00 18.4 2 Sudoeste 6 Sudoeste 0 934.3 -- 51
2020-11-01 10:00:00 15.9 0 Calma 5 Sudoeste 0 934.2 -- 64
2020-11-01 09:00:00 12 0 Calma 5 Sudoeste 0 933.6 -- 77
2020-11-01 08:00:00 9.4 0 Calma 4 Sudoeste 0 932.7 -- 84
2020-11-01 07:00:00 9.7 0 Calma 6 Sudoeste 0 932.8 -- 77
2020-11-01 06:00:00 10.4 5 Sudoeste 6 Sudoeste 0 932.6 -- 77
2020-11-01 05:00:00 10.3 4 Sudoeste 7 Sudoeste 0 933 -- 77
2020-11-01 04:00:00 11.1 4 Sudoeste 9 Sudoeste 0 933.6 -- 73
2020-11-01 03:00:00 11.6 0 Calma -- -- 0 933.9 -- 71
2020-11-01 02:00:00 12.7 0 Calma 6 Sudoeste 0 933.6 -- 66
2020-11-01 01:00:00 13.2 5 Sudoeste 9 Sudoeste 0 933.9 -- 63
2020-11-01 00:00:00 13.5 5 Sudoeste 9 Sudoeste 0 933.6 -- 63
2020-10-31 23:00:00 13.3 4 Sudoeste 8 Sudoeste 0 934.1 -- 61
2020-10-31 22:00:00 15.2 3 Sudoeste 6 Sudoeste 0 933.6 -- 56
2020-10-31 21:00:00 17.4 4 Sudoeste 4 Sudoeste 0 933.3 -- 47
2020-10-31 20:00:00 17.6 3 Sudoeste 6 Sudoeste 0 933.1 -- 45
2020-10-31 19:00:00 19.1 2 Sudoeste 8 Sudoeste 0 932.7 -- 39
2020-10-31 18:00:00 22.1 3 Sudoeste 15 Sudoeste 0 932.4 -- 33
2020-10-31 17:00:00 23.7 4 Sudoeste 20 Sudoeste 0 932.6 -- 31
2020-10-31 16:00:00 23.9 4 Sudoeste 13 Sudoeste 0 932.4 -- 31
2020-10-31 15:00:00 24.5 6 Sudoeste 12 Sudoeste 0 932.6 -- 30
2020-10-31 14:00:00 23.4 4 Sudoeste 12 Sudoeste 0 933.4 -- 32
2020-10-31 13:00:00 22.5 6 Sudoeste 12 Sudoeste 0 933.7 -- 37
2020-10-31 12:00:00 21.1 3 Sudoeste 8 Sudoeste 0 934.4 -- 42
2020-10-31 11:00:00 18 2 Sudoeste 5 Sudoeste 0 934.3 -- 51
2020-10-31 10:00:00 16.6 0 Calma 6 Sudoeste 0 933.9 -- 57
2020-10-31 09:00:00 11.5 4 Sudoeste 5 Sudoeste 0 933.8 -- 75
2020-10-31 08:00:00 9.8 0 Calma 7 Sudoeste 0 933.3 -- 82
2020-10-31 07:00:00 10.7 0 Calma 4 Sudoeste 0 932.9 -- 74
2020-10-31 06:00:00 11.5 0 Calma 4 Sudoeste 0 932.8 -- 70
2020-10-31 05:00:00 11.6 0 Calma 4 Sudoeste 0 932.6 -- 71
2020-10-31 04:00:00 11.2 2 Sudoeste 4 Sudoeste 0 932.6 -- 67
2020-10-31 03:00:00 11.7 0 Calma 2 Sudoeste 0 932.6 -- 62
2020-10-31 02:00:00 12.7 0 Calma 2 Sudoeste 0 932.9 -- 57
2020-10-31 01:00:00 13.7 2 Sudoeste 3 Sudoeste 0 933 -- 53
2020-10-31 00:00:00 14.5 0 Calma 4 Sudoeste 0 933.1 -- 50
2020-10-30 23:00:00 15.3 3 Sudoeste 5 Sudoeste 0 933.3 -- 48
2020-10-30 22:00:00 15.7 0 Calma 5 Sudoeste 0 933.2 -- 47
2020-10-30 21:00:00 15.9 4 Sudoeste 9 Sudoeste 0 933 -- 45
2020-10-30 20:00:00 17.7 4 Sudoeste 12 Sudoeste 0 932.9 -- 42
2020-10-30 19:00:00 18.7 8 Sudoeste 11 Sudoeste 0 932.7 -- 39
2020-10-30 18:00:00 20.9 6 Sudoeste 11 Sudoeste 0 932.5 -- 34
2020-10-30 17:00:00 22.7 7 Sudoeste 14 Sudoeste 0 932.4 -- 32
2020-10-30 16:00:00 23.2 7 Sudoeste 16 Sudoeste 0 932.6 -- 32
2020-10-30 15:00:00 23.3 5 Sudoeste 12 Sudoeste 0 933.1 -- 33
2020-10-30 14:00:00 22.2 6 Sudoeste 13 Sudoeste 0 933.2 -- 39
2020-10-30 13:00:00 21.5 4 Sudoeste 11 Sudoeste 0 933.8 -- 43
2020-10-30 12:00:00 19.3 3 Sudoeste 7 Sudoeste 0 934.3 -- 48
2020-10-30 11:00:00 16.6 2 Sudoeste 5 Sudoeste 0 934.5 -- 61
2020-10-30 10:00:00 14.6 0 Calma 3 Sudoeste 0 934.5 -- 72
2020-10-30 09:00:00 10.7 0 Calma 5 Sudoeste 0 934 -- 92
2020-10-30 08:00:00 8.3 2 Sudoeste 3 Sudoeste 0 933.4 -- 92
2020-10-30 07:00:00 9.1 0 Calma 4 Sudoeste 0 933.4 -- 92
2020-10-30 06:00:00 9.2 2 Sudoeste 4 Sudoeste 0 933.3 -- 92
2020-10-30 05:00:00 8.8 3 Sudoeste 4 Sudoeste 0 933.3 -- 92
2020-10-30 04:00:00 9 2 Sudoeste 7 Sudoeste 0 933.3 -- 89
2020-10-30 03:00:00 10.3 2 Sudoeste 4 Sudoeste 0 933.5 -- 85
2020-10-30 02:00:00 11.7 2 Sudoeste 6 Sudoeste 0 933.7 -- 81
2020-10-30 01:00:00 12.4 2 Sudoeste 4 Sudoeste 0 933.9 -- 77
2020-10-30 00:00:00 12.3 3 Sudoeste 4 Sudoeste 0 934.2 -- 77
2020-10-29 23:00:00 12.8 3 Sudoeste 8 Sudoeste 0 934.3 -- 75
2020-10-29 22:00:00 13.2 6 Sudoeste 9 Sudoeste 0 934.2 -- 73
2020-10-29 21:00:00 13.8 2 Sudoeste 9 Sudoeste 0 934.1 -- 69
2020-10-29 20:00:00 15.5 5 Sudoeste 10 Sudoeste 0 933.9 -- 62
2020-10-29 19:00:00 16.9 5 Sudoeste 9 Sudoeste 0 933.4 -- 56
2020-10-29 18:00:00 19.2 6 Sudoeste 12 Sudoeste 0 933 -- 46
2020-10-29 17:00:00 20.4 6 Sudoeste 11 Sudoeste 0 932.9 -- 40
2020-10-29 16:00:00 20.4 4 Sudoeste 8 Sudoeste 0 932.9 -- 41
2020-10-29 15:00:00 20.1 3 Sudoeste 11 Sudoeste 0 933.3 -- 51
2020-10-29 14:00:00 18.2 3 Sudoeste 10 Sudoeste 0 934.1 -- 58
2020-10-29 13:00:00 15.8 4 Sudoeste 11 Sudoeste 0 934.9 -- 68
2020-10-29 12:00:00 12.3 3 Sudoeste 11 Sudoeste 0 935.3 -- 89
2020-10-29 11:00:00 10.8 5 Sudoeste 9 Sudoeste 0 935.3 -- 95
2020-10-29 10:00:00 9.8 2 Sudoeste 5 Sudoeste 0 935.1 -- 96
2020-10-29 09:00:00 8.6 0 Calma 8 Sudoeste 0 934.4 -- 96
2020-10-29 08:00:00 8.7 5 Sudoeste 9 Sudoeste 0 933.7 -- 96
2020-10-29 07:00:00 8.8 5 Sudoeste 8 Sudoeste 0 933.1 -- 96
2020-10-29 06:00:00 8.8 0 Calma 5 Sudoeste 0 933.3 -- 96
2020-10-29 05:00:00 9 0 Calma 6 Sudoeste 0 932.9 -- 96
2020-10-29 04:00:00 7.9 3 Sudoeste 7 Sudoeste 0 932.6 -- 93
2020-10-29 03:00:00 9.8 4 Sudoeste 7 Sudoeste 0 932.4 -- 93
2020-10-29 02:00:00 10.6 2 Sudoeste 5 Sudoeste 0 932.4 -- 92
2020-10-29 01:00:00 11 3 Sudoeste 6 Sudoeste 0 932.5 -- 90
2020-10-29 00:00:00 10.4 3 Sudoeste 9 Sudoeste 0 932.7 -- 90
2020-10-28 23:00:00 12.4 3 Sudoeste 4 Sudoeste 0 932.9 -- 85
2020-10-28 22:00:00 12.2 4 Sudoeste 6 Sudoeste 0 932.8 -- 85
2020-10-28 21:00:00 12.6 3 Sudoeste 6 Sudoeste 0 932.1 -- 82
2020-10-28 20:00:00 14.1 2 Sudoeste 4 Sudoeste 0 931.8 -- 73
2020-10-28 19:00:00 15.3 4 Sudoeste 8 Sudoeste 0 931.1 -- 63
2020-10-28 18:00:00 18.1 5 Sudoeste 14 Sudoeste 0 930.7 -- 57
2020-10-28 17:00:00 18.2 6 Sudoeste 18 Sudoeste 0 930.6 -- 54
2020-10-28 16:00:00 18.7 8 Sudoeste 16 Sudoeste 0 930.9 -- 49
2020-10-28 15:00:00 18.9 7 Sudoeste 17 Sudoeste 0 930.8 -- 48
2020-10-28 14:00:00 18.2 5 Sudoeste 12 Sudoeste 0 930.8 -- 51
2020-10-28 13:00:00 16.4 3 Sudoeste 8 Sudoeste 0 931.2 -- 54
2020-10-28 12:00:00 15.1 3 Sudoeste 9 Sudoeste 0 931.7 -- 62
2020-10-28 11:00:00 12.8 3 Sudoeste 9 Sudoeste 0 931.3 -- 68
2020-10-28 10:00:00 11.5 5 Sudoeste 9 Sudoeste 0 931.2 -- 77
2020-10-28 09:00:00 8.3 0 Calma 5 Sudoeste 0 930.6 -- 85
2020-10-28 08:00:00 6.1 0 Calma 3 Sudoeste 0 930 -- 89
2020-10-28 07:00:00 6.1 0 Calma 3 Sudoeste 0 929.4 -- 90
2020-10-28 06:00:00 6.1 2 Sudoeste 5 Sudoeste 0 928.9 -- 91
2020-10-28 05:00:00 6.5 0 Calma 6 Sudoeste 0 928.8 -- 90
2020-10-28 04:00:00 6.2 0 Calma 7 Sudoeste 0 928.8 -- 91
2020-10-28 03:00:00 5.8 5 Sudoeste 6 Sudoeste 0 929.1 -- 91
2020-10-28 02:00:00 6.9 3 Sudoeste 5 Oeste 0 928.9 -- 84
2020-10-28 01:00:00 7 3 Sudoeste 4 Sudoeste 0 929.1 -- 86
2020-10-28 00:00:00 8 0 Calma 4 Sudoeste 0 929.3 -- 77
2020-10-27 23:00:00 7.8 3 Sudoeste 6 Sudoeste 0 929.3 -- 77
2020-10-27 22:00:00 7.9 3 Sudoeste 13 Sudoeste 0 929.4 -- 75
2020-10-27 21:00:00 8.8 6 Sudoeste 10 Sudoeste 0 929.2 -- 68
2020-10-27 20:00:00 10 7 Sudoeste 14 Sudoeste 0 929.2 -- 60
2020-10-27 19:00:00 11.9 8 Sudoeste 15 Sudoeste 0 928.5 -- 48
2020-10-27 18:00:00 14 6 Sudoeste 16 Sudoeste 0 927.8 -- 43
2020-10-27 17:00:00 15.5 10 Sudoeste 19 Sudoeste 0 927.8 -- 38
2020-10-27 16:00:00 15.4 8 Sudoeste 18 Sudoeste 0 927.8 -- 38
2020-10-27 15:00:00 15 12 Sudoeste 20 Sudoeste 0 927.9 -- 38
2020-10-27 14:00:00 14.5 11 Sudoeste 23 Sudoeste 0 928.5 -- 41
2020-10-27 13:00:00 14.6 10 Sudoeste 21 Sudoeste 0 929.2 -- 45
2020-10-27 12:00:00 13 11 Sudoeste 27 Sudoeste 0 929.6 -- 50
2020-10-27 11:00:00 11.5 9 Sudoeste 18 Sudoeste 0 929.5 -- 57
2020-10-27 10:00:00 10.3 5 Sudoeste 10 Sudoeste 0 929.5 -- 68
2020-10-27 09:00:00 6.5 0 Calma 4 Sudoeste 0 929.1 -- 81
2020-10-27 08:00:00 5.1 0 Calma 2 Sudoeste 0 928.6 -- 85
2020-10-27 07:00:00 4 0 Calma 4 Sudoeste 0 928.6 -- 88
2020-10-27 06:00:00 4.1 3 Sudoeste 4 Sudoeste 0 928.2 -- 87
2020-10-27 05:00:00 4.1 2 Sudoeste 5 Sudoeste 0 928.2 -- 88
2020-10-27 04:00:00 5 0 Calma 4 Sudoeste 0 928.4 -- 85
2020-10-27 03:00:00 5.1 0 Calma 4 Sudoeste 0 928.7 -- 84
2020-10-27 02:00:00 5.9 4 Sudoeste 6 Sudoeste 0 928.9 -- 77
2020-10-27 01:00:00 6.1 3 Sudoeste 5 Sudoeste 0 929.3 -- 77
2020-10-27 00:00:00 5.8 3 Sudoeste 7 Sudoeste 0 929.4 -- 77